sensor_id;sensor_type;location;lat;lon;timestamp;pressure;altitude;pressure_sealevel;temperature;humidity
68179;BME280;54998;42.656;23.382;2023-04-26T07:34:17;94159.34;;;17.30;40.24
68179;BME280;54998;42.656;23.382;2023-04-26T08:03:56;94172.91;;;21.08;33.69
68179;BME280;54998;42.656;23.382;2023-04-26T08:06:25;94171.28;;;20.40;33.30
68179;BME280;54998;42.656;23.382;2023-04-26T08:08:52;94180.03;;;19.59;36.62
68179;BME280;54998;42.656;23.382;2023-04-26T08:11:18;94183.31;;;16.22;39.67
68179;BME280;54998;42.656;23.382;2023-04-26T08:13:44;94190.00;;;16.10;40.76
68179;BME280;54998;42.656;23.382;2023-04-26T08:16:09;94178.81;;;16.38;41.48
68179;BME280;54998;42.656;23.382;2023-04-26T08:18:35;94188.19;;;16.04;41.90
68179;BME280;54998;42.656;23.382;2023-04-26T08:21:02;94187.19;;;16.40;41.11
68179;BME280;54998;42.656;23.382;2023-04-26T08:23:31;94172.31;;;16.55;40.91
68179;BME280;54998;42.656;23.382;2023-04-26T08:26:03;94179.97;;;16.77;40.35
68179;BME280;54998;42.656;23.382;2023-04-26T08:28:28;94190.09;;;15.46;41.26
68179;BME280;54998;42.656;23.382;2023-04-26T08:30:54;94179.72;;;14.45;42.38
68179;BME280;54998;42.656;23.382;2023-04-26T08:33:19;94175.88;;;14.41;43.55
68179;BME280;54998;42.656;23.382;2023-04-26T08:36:03;94194.31;;;13.93;43.88
68179;BME280;54998;42.656;23.382;2023-04-26T08:38:29;94189.50;;;13.90;45.59
68179;BME280;54998;42.656;23.382;2023-04-26T08:41:00;94185.13;;;13.38;45.90
68179;BME280;54998;42.656;23.382;2023-04-26T08:43:30;94194.91;;;13.19;46.89
68179;BME280;54998;42.656;23.382;2023-04-26T08:46:02;94183.47;;;13.60;46.52
68179;BME280;54998;42.656;23.382;2023-04-26T08:48:35;94185.84;;;13.84;45.32
68179;BME280;54998;42.656;23.382;2023-04-26T08:51:11;94188.34;;;14.22;44.56
68179;BME280;54998;42.656;23.382;2023-04-26T08:53:41;94186.25;;;13.58;46.07
68179;BME280;54998;42.656;23.382;2023-04-26T08:56:09;94192.03;;;13.60;46.55
68179;BME280;54998;42.656;23.382;2023-04-26T08:58:36;94168.78;;;14.13;45.51
68179;BME280;54998;42.656;23.382;2023-04-26T09:01:02;94180.94;;;14.64;43.90
68179;BME280;54998;42.656;23.382;2023-04-26T09:03:32;94178.00;;;15.03;43.32
68179;BME280;54998;42.656;23.382;2023-04-26T09:05:57;94179.53;;;14.97;44.31
68179;BME280;54998;42.656;23.382;2023-04-26T09:08:24;94174.03;;;15.29;42.45
68179;BME280;54998;42.656;23.382;2023-04-26T09:10:52;94162.53;;;14.88;42.72
68179;BME280;54998;42.656;23.382;2023-04-26T09:13:17;94187.00;;;14.41;44.28
68179;BME280;54998;42.656;23.382;2023-04-26T09:15:47;94184.94;;;15.03;43.47
68179;BME280;54998;42.656;23.382;2023-04-26T09:18:21;94196.50;;;15.07;42.32
68179;BME280;54998;42.656;23.382;2023-04-26T09:21:04;94192.13;;;15.50;42.72
68179;BME280;54998;42.656;23.382;2023-04-26T09:23:30;94188.00;;;15.77;41.91
68179;BME280;54998;42.656;23.382;2023-04-26T09:26:23;94191.84;;;15.38;42.00
68179;BME280;54998;42.656;23.382;2023-04-26T09:29:26;94205.50;;;15.54;41.67
68179;BME280;54998;42.656;23.382;2023-04-26T09:31:52;94195.28;;;15.95;39.98
68179;BME280;54998;42.656;23.382;2023-04-26T09:34:17;94190.69;;;16.74;39.31
68179;BME280;54998;42.656;23.382;2023-04-26T09:36:49;94198.44;;;16.60;39.39
68179;BME280;54998;42.656;23.382;2023-04-26T09:39:38;94203.84;;;17.20;38.98
68179;BME280;54998;42.656;23.382;2023-04-26T09:42:08;94192.47;;;17.35;38.72
68179;BME280;54998;42.656;23.382;2023-04-26T09:44:36;94202.28;;;17.53;36.99
68179;BME280;54998;42.656;23.382;2023-04-26T09:47:12;94198.69;;;17.60;37.58
68179;BME280;54998;42.656;23.382;2023-04-26T09:49:48;94180.31;;;17.69;37.16
68179;BME280;54998;42.656;23.382;2023-04-26T09:52:18;94175.69;;;18.31;36.25
68179;BME280;54998;42.656;23.382;2023-04-26T09:57:15;94181.44;;;18.46;35.73
68179;BME280;54998;42.656;23.382;2023-04-26T09:59:41;94185.66;;;18.34;36.15
68179;BME280;54998;42.656;23.382;2023-04-26T10:02:23;94188.28;;;17.27;36.79
68179;BME280;54998;42.656;23.382;2023-04-26T10:04:52;94179.97;;;16.29;39.10
68179;BME280;54998;42.656;23.382;2023-04-26T10:07:21;94190.69;;;17.55;36.90
68179;BME280;54998;42.656;23.382;2023-04-26T10:09:47;94191.13;;;17.92;36.50
68179;BME280;54998;42.656;23.382;2023-04-26T10:12:18;94169.66;;;16.83;37.93
68179;BME280;54998;42.656;23.382;2023-04-26T10:14:45;94183.25;;;17.06;38.91
68179;BME280;54998;42.656;23.382;2023-04-26T10:17:11;94176.34;;;17.93;36.64
68179;BME280;54998;42.656;23.382;2023-04-26T10:19:41;94171.94;;;17.20;37.11
68179;BME280;54998;42.656;23.382;2023-04-26T10:22:16;94182.13;;;17.55;36.50
68179;BME280;54998;42.656;23.382;2023-04-26T10:24:50;94172.72;;;17.67;35.59
68179;BME280;54998;42.656;23.382;2023-04-26T10:27:16;94168.97;;;17.90;35.20
68179;BME280;54998;42.656;23.382;2023-04-26T10:32:20;94150.50;;;18.31;34.08
68179;BME280;54998;42.656;23.382;2023-04-26T10:35:11;94163.94;;;17.21;35.80
68179;BME280;54998;42.656;23.382;2023-04-26T10:45:43;94172.00;;;15.24;38.70
68179;BME280;54998;42.656;23.382;2023-04-26T10:48:29;94158.84;;;14.97;40.01
68179;BME280;54998;42.656;23.382;2023-04-26T10:59:11;94180.50;;;12.79;45.77
68179;BME280;54998;42.656;23.382;2023-04-26T11:01:37;94174.09;;;12.74;45.95
68179;BME280;54998;42.656;23.382;2023-04-26T11:06:51;94172.94;;;12.77;43.08
68179;BME280;54998;42.656;23.382;2023-04-26T11:09:37;94183.69;;;13.12;43.74
68179;BME280;54998;42.656;23.382;2023-04-26T11:12:16;94179.78;;;13.16;41.84
68179;BME280;54998;42.656;23.382;2023-04-26T11:14:43;94184.06;;;13.32;42.89
68179;BME280;54998;42.656;23.382;2023-04-26T11:17:10;94170.00;;;13.11;41.03
68179;BME280;54998;42.656;23.382;2023-04-26T11:19:36;94181.31;;;13.48;41.84
68179;BME280;54998;42.656;23.382;2023-04-26T11:22:05;94172.16;;;13.46;39.90
68179;BME280;54998;42.656;23.382;2023-04-26T11:24:31;94185.56;;;13.79;40.93
68179;BME280;54998;42.656;23.382;2023-04-26T11:26:57;94175.16;;;13.87;39.00
68179;BME280;54998;42.656;23.382;2023-04-26T11:29:24;94174.44;;;13.79;39.88
68179;BME280;54998;42.656;23.382;2023-04-26T11:31:56;94175.09;;;14.40;38.18
68179;BME280;54998;42.656;23.382;2023-04-26T11:34:31;94175.53;;;14.58;37.03
68179;BME280;54998;42.656;23.382;2023-04-26T11:36:57;94155.31;;;14.98;38.09
68179;BME280;54998;42.656;23.382;2023-04-26T11:39:23;94168.44;;;15.47;36.75
68179;BME280;54998;42.656;23.382;2023-04-26T11:41:49;94155.06;;;15.65;36.98
68179;BME280;54998;42.656;23.382;2023-04-26T11:44:19;94156.59;;;15.59;36.36
68179;BME280;54998;42.656;23.382;2023-04-26T11:46:47;94162.19;;;15.84;36.32
